createdAt,value
2018-09-02T00:01:17.897Z,32.57
2018-09-02T00:03:47.168Z,30.30
2018-09-02T00:06:16.110Z,30.40
2018-09-02T00:08:45.276Z,30.63
2018-09-02T00:11:14.439Z,39.60
2018-09-02T00:13:43.291Z,39.33
2018-09-02T00:16:12.203Z,43.50
2018-09-02T00:18:41.164Z,36.03
2018-09-02T00:21:10.514Z,41.93
2018-09-02T00:23:39.936Z,39.37
2018-09-02T00:26:09.031Z,39.30
2018-09-02T00:28:38.302Z,37.30
2018-09-02T00:31:07.777Z,38.87
2018-09-02T00:33:36.917Z,39.17
2018-09-02T00:36:05.922Z,38.70
2018-09-02T00:38:35.189Z,39.90
2018-09-02T00:41:04.091Z,39.70
2018-09-02T00:43:33.300Z,38.10
2018-09-02T00:46:02.476Z,43.50
2018-09-02T00:48:31.597Z,44.17
2018-09-02T00:51:00.768Z,44.70
2018-09-02T00:53:29.933Z,45.57
2018-09-02T00:55:59.169Z,41.27
2018-09-02T00:58:28.466Z,46.27
2018-09-02T01:00:57.450Z,39.90
2018-09-02T01:03:26.720Z,38.73
2018-09-02T01:05:55.547Z,40.77
2018-09-02T01:08:25.017Z,39.70
2018-09-02T01:10:53.931Z,33.40
2018-09-02T01:13:23.144Z,40.17
2018-09-02T01:15:52.127Z,34.27
2018-09-02T01:18:21.344Z,32.97
2018-09-02T01:20:50.670Z,35.63
2018-09-02T01:23:19.644Z,32.73
2018-09-02T01:25:48.889Z,33.93
2018-09-02T01:28:17.884Z,36.47
2018-09-02T01:30:46.711Z,38.47
2018-09-02T01:33:16.049Z,35.03
2018-09-02T01:35:45.061Z,37.23
2018-09-02T01:38:14.384Z,40.63
2018-09-02T01:40:43.648Z,34.93
2018-09-02T01:43:12.579Z,39.50
2018-09-02T01:45:41.409Z,38.47
2018-09-02T01:48:10.720Z,37.63
2018-09-02T01:50:39.643Z,38.03
2018-09-02T01:53:08.732Z,40.93
2018-09-02T01:55:37.680Z,39.03
2018-09-02T01:58:06.657Z,39.40
2018-09-02T02:00:35.676Z,35.73
2018-09-02T02:03:04.532Z,36.63
2018-09-02T02:05:33.993Z,42.43
2018-09-02T02:08:03.107Z,34.90
2018-09-02T02:10:32.080Z,33.70
2018-09-02T02:13:00.973Z,41.27
2018-09-02T02:15:30.344Z,31.87
2018-09-02T02:17:59.274Z,45.17
2018-09-02T02:20:28.379Z,44.07
2018-09-02T02:22:57.300Z,41.63
2018-09-02T02:25:26.211Z,37.27
2018-09-02T02:27:55.460Z,41.60
2018-09-02T02:30:24.308Z,37.13
2018-09-02T02:32:53.563Z,46.90
2018-09-02T02:35:22.731Z,41.17
2018-09-02T02:37:52.080Z,41.77
2018-09-02T02:40:21.108Z,49.00
2018-09-02T02:42:50.400Z,43.57
2018-09-02T02:45:19.241Z,40.00
2018-09-02T02:47:48.585Z,43.17
2018-09-02T02:50:17.956Z,39.37
2018-09-02T02:52:51.974Z,38.87
2018-09-02T02:55:21.246Z,41.90
2018-09-02T02:57:50.202Z,45.80
2018-09-02T03:00:19.183Z,38.13
2018-09-02T03:02:48.507Z,43.17
2018-09-02T03:05:18.356Z,43.73
2018-09-02T03:07:47.536Z,40.63
2018-09-02T03:10:17.245Z,34.67
2018-09-02T03:12:46.401Z,37.97
2018-09-02T03:15:15.504Z,46.37
2018-09-02T03:17:44.501Z,43.63
2018-09-02T03:20:13.475Z,40.30
2018-09-02T03:22:42.733Z,45.57
2018-09-02T03:25:11.787Z,44.20
2018-09-02T03:27:40.996Z,44.20
2018-09-02T03:30:09.871Z,49.23
2018-09-02T03:32:38.930Z,50.80
2018-09-02T03:35:08.282Z,56.67
2018-09-02T03:37:37.495Z,54.23
2018-09-02T03:40:07.068Z,55.40
2018-09-02T03:42:36.312Z,48.60
2018-09-02T03:45:05.609Z,38.10
2018-09-02T03:47:34.501Z,47.37
2018-09-02T03:50:03.875Z,43.97
2018-09-02T03:52:33.104Z,42.50
2018-09-02T03:55:02.125Z,40.10
2018-09-02T03:57:31.128Z,38.93
2018-09-02T04:00:00.320Z,32.30
2018-09-02T04:02:29.652Z,30.77
2018-09-02T04:04:58.906Z,31.17
2018-09-02T04:07:27.906Z,35.87
2018-09-02T04:09:56.765Z,35.37
2018-09-02T04:12:26.167Z,34.03
2018-09-02T04:14:55.066Z,29.80
2018-09-02T04:17:24.069Z,31.10
2018-09-02T04:19:53.015Z,34.90
2018-09-02T04:22:22.331Z,30.33
2018-09-02T04:24:51.336Z,28.40
2018-09-02T04:27:20.642Z,28.23
2018-09-02T04:29:49.940Z,32.80
2018-09-02T04:32:18.800Z,31.60
2018-09-02T04:34:47.730Z,31.77
2018-09-02T04:37:16.745Z,28.37
2018-09-02T04:39:45.712Z,31.53
2018-09-02T04:42:15.006Z,30.93
2018-09-02T04:44:44.107Z,27.97
2018-09-02T04:47:13.215Z,26.73
2018-09-02T04:49:42.299Z,33.07
2018-09-02T04:52:11.564Z,30.47
2018-09-02T04:54:41.024Z,33.27
2018-09-02T04:57:10.451Z,27.77
2018-09-02T04:59:39.585Z,26.80
2018-09-02T05:02:08.493Z,31.50
2018-09-02T05:04:37.565Z,27.30
2018-09-02T05:07:06.392Z,33.47
2018-09-02T05:09:35.284Z,29.50
2018-09-02T05:12:04.273Z,31.30
2018-09-02T05:14:33.204Z,26.33
2018-09-02T05:17:02.409Z,27.83
2018-09-02T05:19:31.644Z,23.37
2018-09-02T05:22:00.848Z,27.10
2018-09-02T05:24:30.199Z,23.53
2018-09-02T05:26:59.281Z,27.27
2018-09-02T05:29:28.451Z,25.90
2018-09-02T05:31:58.356Z,28.37
2018-09-02T05:34:27.621Z,29.53
2018-09-02T05:36:57.095Z,33.07
2018-09-02T05:39:26.300Z,26.17
2018-09-02T05:41:55.431Z,28.60
2018-09-02T05:44:24.670Z,25.77
2018-09-02T05:46:53.665Z,23.83
2018-09-02T05:49:22.932Z,23.00
2018-09-02T05:51:51.740Z,28.03
2018-09-02T05:54:20.630Z,22.97
2018-09-02T05:56:49.627Z,24.23
2018-09-02T05:59:18.811Z,26.63
2018-09-02T06:01:48.224Z,21.87
2018-09-02T06:04:17.573Z,22.83
2018-09-02T06:06:46.756Z,21.87
2018-09-02T06:09:16.180Z,25.80
2018-09-02T06:11:45.231Z,26.33
2018-09-02T06:14:14.441Z,23.50
2018-09-02T06:16:44.132Z,25.20
2018-09-02T06:19:12.960Z,24.23
2018-09-02T06:21:41.861Z,25.90
2018-09-02T06:24:10.941Z,23.93
2018-09-02T06:26:40.028Z,24.03
2018-09-02T06:29:08.843Z,22.50
2018-09-02T06:31:37.883Z,21.40
2018-09-02T06:34:06.885Z,22.23
2018-09-02T06:36:35.768Z,29.80
2018-09-02T06:39:06.356Z,21.60
2018-09-02T06:41:35.216Z,24.67
2018-09-02T06:44:04.454Z,24.63
2018-09-02T06:46:33.827Z,26.33
2018-09-02T06:49:03.300Z,24.23
2018-09-02T06:51:32.434Z,21.30
2018-09-02T06:54:01.302Z,17.43
2018-09-02T06:56:30.208Z,23.53
2018-09-02T06:58:59.166Z,20.10
2018-09-02T07:01:28.095Z,19.37
2018-09-02T07:03:56.932Z,21.73
2018-09-02T07:06:25.819Z,19.20
2018-09-02T07:08:54.768Z,19.23
2018-09-02T07:11:23.709Z,25.40
2018-09-02T07:13:52.568Z,16.93
2018-09-02T07:16:21.483Z,16.90
2018-09-02T07:18:50.686Z,18.93
2018-09-02T07:21:19.753Z,20.50
2018-09-02T07:23:48.679Z,20.03
2018-09-02T07:26:17.611Z,15.67
2018-09-02T07:28:46.564Z,18.80
2018-09-02T07:31:15.535Z,15.87
2018-09-02T07:33:44.390Z,16.97
2018-09-02T07:36:13.196Z,19.10
2018-09-02T07:38:42.248Z,14.17
2018-09-02T07:41:11.093Z,17.90
2018-09-02T07:43:40.121Z,20.97
2018-09-02T07:46:08.952Z,21.20
2018-09-02T07:48:38.222Z,18.07
2018-09-02T07:51:07.189Z,16.20
2018-09-02T07:53:36.108Z,20.27
2018-09-02T07:56:05.013Z,18.07
2018-09-02T07:58:33.976Z,16.97
2018-09-02T08:01:02.846Z,16.43
2018-09-02T08:03:31.773Z,15.83
2018-09-02T08:06:00.716Z,15.57
2018-09-02T08:08:29.549Z,20.00
2018-09-02T08:10:58.379Z,17.33
2018-09-02T08:13:27.246Z,14.10
2018-09-02T08:15:56.204Z,17.80
2018-09-02T08:18:26.147Z,25.33
2018-09-02T08:20:55.084Z,20.87
2018-09-02T08:23:24.205Z,19.40
2018-09-02T08:25:53.203Z,17.73
2018-09-02T08:28:22.139Z,19.23
2018-09-02T08:30:51.050Z,26.43
2018-09-02T08:33:20.122Z,18.40
2018-09-02T08:35:49.081Z,20.63
2018-09-02T08:38:18.260Z,19.23
2018-09-02T08:40:47.135Z,14.23
2018-09-02T08:43:16.071Z,20.57
2018-09-02T08:45:45.038Z,18.67
2018-09-02T08:48:14.015Z,19.73
2018-09-02T08:50:42.943Z,16.83
2018-09-02T08:53:11.856Z,20.70
2018-09-02T08:55:40.664Z,20.13
2018-09-02T08:58:09.530Z,18.60
2018-09-02T09:00:38.517Z,16.27
2018-09-02T09:03:07.404Z,15.03
2018-09-02T09:05:36.420Z,15.10
2018-09-02T09:08:05.656Z,16.10
2018-09-02T09:10:34.505Z,13.07
2018-09-02T09:13:03.432Z,13.20
2018-09-02T09:15:32.357Z,21.37
2018-09-02T09:18:01.275Z,15.50
2018-09-02T09:20:30.157Z,19.47
2018-09-02T09:22:59.023Z,16.53
2018-09-02T09:25:28.133Z,21.30
2018-09-02T09:27:57.418Z,13.60
2018-09-02T09:30:26.223Z,19.73
2018-09-02T09:32:55.145Z,25.43
2018-09-02T09:35:24.396Z,21.83
2018-09-02T09:37:53.518Z,19.40
2018-09-02T09:40:22.844Z,24.23
2018-09-02T09:42:51.789Z,19.33
2018-09-02T09:45:20.599Z,20.67
2018-09-02T09:47:49.516Z,19.40
2018-09-02T09:50:18.712Z,17.03
2018-09-02T09:52:47.702Z,63.23
2018-09-02T09:55:16.638Z,76.37
2018-09-02T09:57:45.656Z,14.50
2018-09-02T10:00:18.916Z,21.03
2018-09-02T10:02:47.987Z,20.43
2018-09-02T10:05:16.849Z,25.27
2018-09-02T10:07:45.785Z,133.73
2018-09-02T10:10:14.634Z,96.87
2018-09-02T10:12:43.481Z,34.53
2018-09-02T10:15:12.448Z,20.83
2018-09-02T10:17:41.473Z,23.20
2018-09-02T10:20:10.691Z,18.10
2018-09-02T10:22:39.934Z,16.97
2018-09-02T10:25:09.088Z,19.70
2018-09-02T10:27:38.432Z,16.13
2018-09-02T10:30:08.355Z,16.40
2018-09-02T10:32:37.462Z,24.37
2018-09-02T10:35:06.363Z,22.93
2018-09-02T10:37:35.237Z,21.27
2018-09-02T10:40:04.676Z,17.33
2018-09-02T10:42:33.590Z,19.93
2018-09-02T10:45:02.505Z,23.07
2018-09-02T10:47:31.440Z,20.57
2018-09-02T10:50:00.412Z,22.10
2018-09-02T10:52:29.497Z,17.50
2018-09-02T10:54:58.433Z,20.70
2018-09-02T10:57:27.413Z,19.93
2018-09-02T10:59:56.405Z,19.10
2018-09-02T11:02:25.357Z,27.43
2018-09-02T11:04:54.901Z,25.37
2018-09-02T11:07:24.384Z,23.07
2018-09-02T11:09:53.760Z,18.07
2018-09-02T11:12:23.000Z,19.57
2018-09-02T11:14:52.185Z,23.43
2018-09-02T11:17:21.444Z,21.53
2018-09-02T11:19:50.578Z,19.37
2018-09-02T11:22:19.375Z,20.60
2018-09-02T11:24:48.265Z,23.30
2018-09-02T11:27:17.202Z,25.10
2018-09-02T11:29:46.384Z,27.57
2018-09-02T11:32:15.515Z,20.37
2018-09-02T11:34:45.041Z,28.70
2018-09-02T11:37:14.439Z,17.33
2018-09-02T11:39:43.697Z,34.20
2018-09-02T11:42:12.962Z,32.97
2018-09-02T11:44:42.200Z,20.40
2018-09-02T11:47:11.573Z,25.60
2018-09-02T11:49:40.735Z,22.77
2018-09-02T11:52:09.608Z,19.83
2018-09-02T11:54:38.852Z,18.27
2018-09-02T11:57:07.805Z,27.03
2018-09-02T11:59:36.732Z,20.83
2018-09-02T12:02:05.691Z,25.63
2018-09-02T12:04:34.663Z,19.50
2018-09-02T12:07:03.631Z,21.73
2018-09-02T12:09:32.666Z,20.97
2018-09-02T12:12:02.169Z,19.17
2018-09-02T12:14:31.808Z,17.53
2018-09-02T12:17:00.942Z,22.20
2018-09-02T12:19:30.001Z,28.97
2018-09-02T12:21:59.316Z,20.90
2018-09-02T12:24:28.264Z,20.47
2018-09-02T12:26:57.256Z,18.07
2018-09-02T12:29:26.415Z,18.30
2018-09-02T12:31:55.411Z,26.77
2018-09-02T12:34:24.527Z,19.27
2018-09-02T12:36:53.800Z,20.93
2018-09-02T12:39:22.668Z,22.37
2018-09-02T12:41:51.622Z,21.40
2018-09-02T12:44:20.887Z,20.60
2018-09-02T12:46:50.084Z,20.97
2018-09-02T12:49:19.048Z,28.90
2018-09-02T12:51:48.137Z,25.20
2018-09-02T12:54:17.053Z,26.57
2018-09-02T12:56:45.884Z,21.40
2018-09-02T12:59:14.819Z,21.67
2018-09-02T13:01:43.692Z,18.23
2018-09-02T13:04:12.591Z,25.20
2018-09-02T13:06:41.504Z,24.83
2018-09-02T13:09:10.380Z,17.73
2018-09-02T13:11:39.374Z,28.73
2018-09-02T13:14:08.235Z,20.83
2018-09-02T13:16:37.185Z,24.53
2018-09-02T13:19:06.115Z,22.80
2018-09-02T13:21:34.963Z,22.27
2018-09-02T13:24:04.198Z,19.20
2018-09-02T13:26:33.513Z,24.40
2018-09-02T13:29:02.816Z,22.73
2018-09-02T13:31:32.082Z,20.03
2018-09-02T13:34:01.291Z,26.53
2018-09-02T13:36:30.332Z,21.30
2018-09-02T13:38:59.288Z,20.90
2018-09-02T13:41:28.208Z,22.10
2018-09-02T13:43:57.360Z,27.17
2018-09-02T13:46:26.293Z,18.20
2018-09-02T13:48:55.228Z,20.93
2018-09-02T13:51:24.294Z,19.27
2018-09-02T13:53:53.156Z,27.27
2018-09-02T13:56:22.017Z,21.63
2018-09-02T13:58:50.849Z,23.97
2018-09-02T14:01:19.762Z,24.43
2018-09-02T14:03:48.700Z,20.33
2018-09-02T14:06:17.745Z,26.17
2018-09-02T14:08:47.032Z,23.67
2018-09-02T14:11:16.485Z,22.87
2018-09-02T14:13:45.556Z,23.23
2018-09-02T14:16:14.456Z,19.63
2018-09-02T14:18:43.348Z,19.77
2018-09-02T14:21:12.219Z,20.73
2018-09-02T14:23:41.094Z,25.10
2018-09-02T14:26:10.390Z,20.80
2018-09-02T14:28:39.668Z,20.83
2018-09-02T14:31:08.879Z,26.43
2018-09-02T14:33:38.104Z,23.87
2018-09-02T14:36:07.357Z,24.53
2018-09-02T14:38:36.260Z,26.07
2018-09-02T14:41:05.147Z,21.13
2018-09-02T14:43:34.085Z,26.80
2018-09-02T14:46:03.141Z,19.50
2018-09-02T14:48:32.065Z,23.80
2018-09-02T14:51:01.125Z,28.60
2018-09-02T14:53:29.967Z,27.63
2018-09-02T14:55:59.105Z,25.07
2018-09-02T14:58:28.520Z,24.37
2018-09-02T15:00:57.676Z,18.63
2018-09-02T15:03:26.812Z,27.50
2018-09-02T15:05:55.848Z,27.00
2018-09-02T15:08:24.683Z,21.30
2018-09-02T15:10:53.584Z,21.47
2018-09-02T15:13:22.681Z,23.73
2018-09-02T15:15:51.604Z,24.90
2018-09-02T15:18:20.700Z,27.80
2018-09-02T15:20:49.508Z,22.57
2018-09-02T15:23:18.489Z,16.87
2018-09-02T15:25:47.473Z,23.67
2018-09-02T15:28:16.660Z,22.13
2018-09-02T15:30:45.888Z,25.37
2018-09-02T15:33:15.148Z,21.93
2018-09-02T15:35:44.059Z,29.50
2018-09-02T15:38:12.949Z,17.10
2018-09-02T15:40:42.123Z,27.57
2018-09-02T15:43:11.383Z,22.37
2018-09-02T15:45:40.372Z,22.10
2018-09-02T15:48:09.319Z,27.00
2018-09-02T15:50:38.312Z,22.13
2018-09-02T15:53:07.594Z,22.03
2018-09-02T15:55:36.588Z,24.27
2018-09-02T15:58:05.816Z,24.70
2018-09-02T16:00:35.140Z,32.03
2018-09-02T16:03:03.994Z,26.13
2018-09-02T16:05:33.019Z,24.77
2018-09-02T16:08:01.944Z,33.20
2018-09-02T16:10:30.853Z,24.33
2018-09-02T16:12:59.703Z,20.57
2018-09-02T16:15:28.580Z,27.40
2018-09-02T16:17:57.425Z,26.60
2018-09-02T16:20:26.344Z,28.13
2018-09-02T16:22:55.254Z,26.73
2018-09-02T16:25:24.296Z,28.10
2018-09-02T16:27:53.604Z,22.33
2018-09-02T16:30:23.423Z,22.37
2018-09-02T16:32:52.657Z,29.77
2018-09-02T16:35:21.883Z,27.33
2018-09-02T16:37:51.084Z,31.17
2018-09-02T16:40:20.408Z,32.03
2018-09-02T16:42:49.647Z,34.17
2018-09-02T16:45:18.777Z,37.37
2018-09-02T16:47:48.057Z,33.03
2018-09-02T16:50:17.506Z,29.53
2018-09-02T16:52:46.977Z,38.03
2018-09-02T16:55:16.308Z,33.67
2018-09-02T16:57:45.485Z,33.23
2018-09-02T17:00:14.716Z,39.37
2018-09-02T17:02:43.904Z,30.33
2018-09-02T17:05:20.660Z,31.90
2018-09-02T17:07:50.180Z,35.23
2018-09-02T17:10:19.659Z,36.30
2018-09-02T17:12:49.130Z,40.03
2018-09-02T17:15:18.080Z,30.40
2018-09-02T17:17:47.305Z,35.57
2018-09-02T17:20:20.837Z,34.13
2018-09-02T17:22:50.061Z,43.97
2018-09-02T17:25:19.336Z,33.00
2018-09-02T17:27:48.495Z,27.77
2018-09-02T17:30:17.351Z,32.23
2018-09-02T17:32:46.835Z,34.13
2018-09-02T17:35:17.426Z,29.20
2018-09-02T17:37:46.792Z,37.43
2018-09-02T17:40:16.120Z,37.03
2018-09-02T17:42:45.396Z,31.33
2018-09-02T17:45:14.285Z,30.50
2018-09-02T17:47:43.636Z,30.97
2018-09-02T17:50:12.928Z,27.40
2018-09-02T17:52:42.072Z,30.97
2018-09-02T17:55:11.210Z,33.17
2018-09-02T17:57:40.880Z,30.43
2018-09-02T18:00:12.121Z,32.03
2018-09-02T18:02:41.040Z,29.27
2018-09-02T18:05:09.976Z,32.70
2018-09-02T18:07:39.220Z,22.70
2018-09-02T18:10:08.189Z,24.60
2018-09-02T18:12:37.349Z,37.07
2018-09-02T18:15:06.536Z,27.00
2018-09-02T18:17:35.455Z,23.43
2018-09-02T18:32:55.941Z,27.80
2018-09-02T18:35:24.797Z,29.70
2018-09-02T18:37:54.172Z,27.57
2018-09-02T18:40:23.144Z,28.10
2018-09-02T18:42:52.027Z,30.67
2018-09-02T18:45:21.229Z,28.70
2018-09-02T18:47:50.173Z,32.37
2018-09-02T18:50:19.289Z,25.20
2018-09-02T18:52:48.177Z,24.90
2018-09-02T18:55:17.306Z,23.90
2018-09-02T18:57:46.188Z,29.60
2018-09-02T19:00:15.088Z,33.73
2018-09-02T19:02:44.224Z,26.83
2018-09-02T19:05:13.285Z,31.10
2018-09-02T19:07:42.683Z,28.60
2018-09-02T19:10:11.613Z,29.10
2018-09-02T19:12:40.519Z,27.60
2018-09-02T19:15:09.458Z,26.13
2018-09-02T19:17:38.341Z,23.90
2018-09-02T19:20:08.036Z,23.53
2018-09-02T19:22:37.160Z,26.63
2018-09-02T19:25:06.049Z,28.00
2018-09-02T19:27:35.001Z,35.00
2018-09-02T19:30:03.880Z,28.63
2018-09-02T19:32:32.904Z,32.73
2018-09-02T19:35:01.788Z,27.13
2018-09-02T19:37:31.015Z,35.63
2018-09-02T19:40:00.857Z,29.50
2018-09-02T19:42:29.866Z,31.87
2018-09-02T19:44:58.818Z,26.57
2018-09-02T19:47:27.917Z,28.20
2018-09-02T19:49:56.990Z,29.40
2018-09-02T19:52:25.953Z,30.50
2018-09-02T19:54:54.848Z,28.50
2018-09-02T19:57:24.042Z,31.80
2018-09-02T19:59:53.025Z,26.43
2018-09-02T20:02:22.022Z,22.57
2018-09-02T20:04:50.999Z,31.10
2018-09-02T20:07:19.888Z,35.70
2018-09-02T20:09:48.853Z,29.40
2018-09-02T20:12:17.955Z,28.70
2018-09-02T20:14:46.940Z,27.77
2018-09-02T20:17:16.216Z,29.90
2018-09-02T20:19:45.592Z,29.93
2018-09-02T20:22:14.951Z,28.57
2018-09-02T20:24:43.871Z,27.80
2018-09-02T20:27:12.833Z,27.57
2018-09-02T20:29:41.688Z,29.63
2018-09-02T20:32:10.720Z,30.83
2018-09-02T20:34:39.585Z,31.37
2018-09-02T20:37:08.440Z,24.10
2018-09-02T20:39:37.288Z,27.53
2018-09-02T20:42:06.139Z,35.03
2018-09-02T20:44:35.185Z,29.07
2018-09-02T20:47:04.277Z,28.67
2018-09-02T20:49:33.485Z,28.80
2018-09-02T20:52:02.547Z,29.17
2018-09-02T20:54:31.859Z,21.67
2018-09-02T20:57:01.018Z,24.80
2018-09-02T20:59:30.163Z,41.23
2018-09-02T21:01:59.672Z,25.70
2018-09-02T21:04:28.989Z,24.17
2018-09-02T21:06:58.086Z,22.67
2018-09-02T21:09:27.400Z,24.17
2018-09-02T21:11:56.560Z,26.83
2018-09-02T21:14:25.892Z,29.53
2018-09-02T21:16:55.029Z,25.17
2018-09-02T21:19:23.938Z,24.33
2018-09-02T21:21:53.292Z,27.77
2018-09-02T21:24:22.592Z,30.53
2018-09-02T21:26:51.576Z,36.47
2018-09-02T21:29:20.920Z,35.50
2018-09-02T21:31:50.188Z,36.70
2018-09-02T21:34:19.377Z,29.50
2018-09-02T21:36:48.656Z,31.43
2018-09-02T21:39:17.739Z,37.57
2018-09-02T21:41:47.181Z,31.53
2018-09-02T21:44:16.183Z,28.37
2018-09-02T21:46:45.623Z,31.23
2018-09-02T21:49:14.549Z,34.17
2018-09-02T21:51:43.925Z,22.17
2018-09-02T21:54:13.289Z,35.93
2018-09-02T21:56:42.183Z,30.57
2018-09-02T21:59:11.153Z,29.00
2018-09-02T22:01:40.477Z,34.40
2018-09-02T22:04:09.946Z,24.43
2018-09-02T22:06:39.322Z,38.40
2018-09-02T22:09:16.546Z,36.47
2018-09-02T22:11:45.643Z,38.10
2018-09-02T22:14:15.081Z,33.70
2018-09-02T22:16:44.711Z,33.00
2018-09-02T22:19:13.828Z,30.37
2018-09-02T22:21:42.914Z,31.20
2018-09-02T22:24:12.087Z,28.27
2018-09-02T22:26:41.235Z,28.10
2018-09-02T22:29:10.612Z,32.43
2018-09-02T22:31:39.888Z,25.67
2018-09-02T22:34:09.008Z,31.60
2018-09-02T22:36:37.901Z,27.63
2018-09-02T22:39:08.167Z,27.93
2018-09-02T22:41:37.697Z,31.57
2018-09-02T22:44:07.059Z,32.27
2018-09-02T22:46:35.892Z,30.77
2018-09-02T22:49:05.292Z,35.57
2018-09-02T22:51:34.371Z,28.87
2018-09-02T22:54:03.734Z,27.87
2018-09-02T22:56:32.891Z,30.67
2018-09-02T22:59:02.087Z,27.33
2018-09-02T23:01:31.232Z,30.63
2018-09-02T23:04:00.392Z,30.00
2018-09-02T23:06:29.412Z,36.73
2018-09-02T23:08:58.781Z,28.87
2018-09-02T23:11:28.073Z,27.03
2018-09-02T23:13:57.196Z,27.97
2018-09-02T23:16:26.456Z,34.77
2018-09-02T23:18:55.619Z,37.40
2018-09-02T23:21:25.177Z,32.33
2018-09-02T23:23:54.446Z,30.73
2018-09-02T23:26:23.606Z,32.20
2018-09-02T23:28:53.031Z,26.77
2018-09-02T23:31:21.920Z,28.50
2018-09-02T23:33:50.982Z,35.27
2018-09-02T23:36:20.283Z,30.60
2018-09-02T23:38:49.476Z,32.10
2018-09-02T23:41:18.608Z,37.23
2018-09-02T23:43:47.972Z,29.73
2018-09-02T23:46:17.176Z,29.03
2018-09-02T23:48:46.144Z,29.63
2018-09-02T23:51:14.992Z,29.80
2018-09-02T23:53:43.997Z,28.60
2018-09-02T23:56:13.352Z,31.10
2018-09-02T23:58:42.756Z,29.17
